Impacts TAF Board INFO
FOR SITUATIONAL AWARENESS. NOT TO BE USED FOR FLIGHT PLANNING PURPOSES.
IDs:

KMSP - Minneapolis-St Paul, MN, US

Issued at 1728 UTC 21 Sep 2017
Updated at 1747 UTC 21 Sep 2017
Potential Impact None Slight Moderate High
Time1653Z 21/18Z 21/19Z 21/20Z 21/21Z 21/22Z 21/23Z 22/00Z 22/01Z 22/02Z 22/03Z 22/04Z 22/05Z 22/06Z>>
Type OBS PRVL
  [TEMP]  
PRVL PRVL PRVL PRVL PRVL PRVL PRVL PRVL PRVL PRVL PRVL PRVL
VIS 10 >6 >6 >6 >6 >6 >6 >6 >6 >6 >6 >6 >6 >6
CIG -- --
  [19]  
-- -- -- 35 35 35 35 -- -- 50 50 50
Cover CLR SCT
  [BKN]  
SCT SCT SCT BKN BKN BKN BKN SCT SCT OVC OVC OVC
FltCat VFR VFR
  [MVFR]  
VFR VFR VFR VFR VFR VFR VFR VFR VFR VFR VFR VFR
WX -- --
  [--]  
-- -- -- -- -- -- -- -- -- -- -- --
WDir 130 130
[130]
130 130 130 130 130 130 130 160 160 150 150 150
WSpd 13 13
  [13]  
13 13 13 12 12 12 12 12 12 10 10 10
WGst -- 20
  [20]  
20 20 20 20 20 20 20 -- -- -- -- --

Raw TAF
KMSP 211728Z 2118/2224 13013G20KT P6SM SCT020
  TEMPO 2118/2119 BKN019
  FM212200 13012G20KT P6SM BKN035
  FM220200 16012KT P6SM SCT050
  FM220400 15010KT P6SM BKN050 OVC150 WS020/20045KT
  FM221500 17013G20KT P6SM BKN150


Raw METAR
KMSP 211653Z 13013KT 10SM CLR 23/14 A2994 RMK AO2 SLP134 T02330144
KMSP 211553Z 12012KT 10SM CLR 21/14 A2996 RMK AO2 SLP142 T02060139
KMSP 211453Z 12012KT 10SM CLR 19/12 A2998 RMK AO2 SLP149 T01890122 56007

METAR Board
Radar Display
Forecast Discussion

FOR SITUATIONAL AWARENESS. NOT TO BE USED FOR FLIGHT PLANNING PURPOSES.